sensor_id;sensor_type;location;lat;lon;timestamp;P1;durP1;ratioP1;P2;durP2;ratioP2
7487;SDS011;3785;52.260;4.728;2024-03-07T00:00:59;21.45;;;11.60;;
7487;SDS011;3785;52.260;4.728;2024-03-07T00:04:20;20.80;;;11.32;;
7487;SDS011;3785;52.260;4.728;2024-03-07T00:07:41;25.98;;;12.73;;
7487;SDS011;3785;52.260;4.728;2024-03-07T00:11:01;22.45;;;12.13;;
7487;SDS011;3785;52.260;4.728;2024-03-07T00:14:23;24.70;;;12.63;;
7487;SDS011;3785;52.260;4.728;2024-03-07T00:17:47;26.58;;;12.98;;
7487;SDS011;3785;52.260;4.728;2024-03-07T00:21:08;25.27;;;12.95;;
7487;SDS011;3785;52.260;4.728;2024-03-07T00:24:29;24.92;;;12.55;;
7487;SDS011;3785;52.260;4.728;2024-03-07T00:27:49;23.58;;;12.35;;
7487;SDS011;3785;52.260;4.728;2024-03-07T00:31:13;24.77;;;13.02;;
7487;SDS011;3785;52.260;4.728;2024-03-07T00:34:33;24.40;;;12.05;;
7487;SDS011;3785;52.260;4.728;2024-03-07T00:37:54;24.92;;;12.82;;
7487;SDS011;3785;52.260;4.728;2024-03-07T00:41:14;24.17;;;11.50;;
7487;SDS011;3785;52.260;4.728;2024-03-07T00:44:37;22.08;;;11.82;;
7487;SDS011;3785;52.260;4.728;2024-03-07T00:47:57;25.25;;;12.10;;
7487;SDS011;3785;52.260;4.728;2024-03-07T00:51:18;28.60;;;13.55;;
7487;SDS011;3785;52.260;4.728;2024-03-07T00:54:39;24.08;;;12.30;;
7487;SDS011;3785;52.260;4.728;2024-03-07T00:58:00;25.88;;;12.25;;
7487;SDS011;3785;52.260;4.728;2024-03-07T01:01:20;25.45;;;12.50;;
7487;SDS011;3785;52.260;4.728;2024-03-07T01:04:41;24.25;;;13.23;;
7487;SDS011;3785;52.260;4.728;2024-03-07T01:08:02;26.55;;;13.00;;
7487;SDS011;3785;52.260;4.728;2024-03-07T01:11:23;25.55;;;12.90;;
7487;SDS011;3785;52.260;4.728;2024-03-07T01:14:44;23.85;;;11.93;;
7487;SDS011;3785;52.260;4.728;2024-03-07T01:18:06;26.08;;;11.93;;
7487;SDS011;3785;52.260;4.728;2024-03-07T01:21:27;27.65;;;13.93;;
7487;SDS011;3785;52.260;4.728;2024-03-07T01:24:47;25.45;;;12.75;;
7487;SDS011;3785;52.260;4.728;2024-03-07T01:28:08;29.00;;;14.05;;
7487;SDS011;3785;52.260;4.728;2024-03-07T01:31:32;26.85;;;12.60;;
7487;SDS011;3785;52.260;4.728;2024-03-07T01:34:53;26.52;;;12.57;;
7487;SDS011;3785;52.260;4.728;2024-03-07T01:38:14;22.40;;;12.23;;
7487;SDS011;3785;52.260;4.728;2024-03-07T01:41:35;28.52;;;12.70;;
7487;SDS011;3785;52.260;4.728;2024-03-07T01:44:55;25.90;;;12.73;;
7487;SDS011;3785;52.260;4.728;2024-03-07T01:48:18;25.17;;;12.02;;
7487;SDS011;3785;52.260;4.728;2024-03-07T01:51:44;25.33;;;12.75;;
7487;SDS011;3785;52.260;4.728;2024-03-07T01:55:04;26.17;;;13.23;;
7487;SDS011;3785;52.260;4.728;2024-03-07T01:58:26;27.33;;;12.32;;
7487;SDS011;3785;52.260;4.728;2024-03-07T02:01:46;26.88;;;12.98;;
7487;SDS011;3785;52.260;4.728;2024-03-07T02:05:07;26.17;;;12.20;;
7487;SDS011;3785;52.260;4.728;2024-03-07T02:08:28;27.23;;;13.63;;
7487;SDS011;3785;52.260;4.728;2024-03-07T02:11:48;27.55;;;12.82;;
7487;SDS011;3785;52.260;4.728;2024-03-07T02:15:09;24.02;;;12.93;;
7487;SDS011;3785;52.260;4.728;2024-03-07T02:18:30;29.42;;;13.23;;
7487;SDS011;3785;52.260;4.728;2024-03-07T02:21:50;29.02;;;14.00;;
7487;SDS011;3785;52.260;4.728;2024-03-07T02:25:11;31.67;;;14.27;;
7487;SDS011;3785;52.260;4.728;2024-03-07T02:28:32;30.35;;;14.35;;
7487;SDS011;3785;52.260;4.728;2024-03-07T02:31:53;31.70;;;13.85;;
7487;SDS011;3785;52.260;4.728;2024-03-07T02:35:13;30.45;;;14.20;;
7487;SDS011;3785;52.260;4.728;2024-03-07T02:38:35;34.70;;;14.77;;
7487;SDS011;3785;52.260;4.728;2024-03-07T02:41:56;30.65;;;15.18;;
7487;SDS011;3785;52.260;4.728;2024-03-07T02:45:16;32.88;;;15.60;;
7487;SDS011;3785;52.260;4.728;2024-03-07T02:48:37;33.25;;;15.05;;
7487;SDS011;3785;52.260;4.728;2024-03-07T02:51:58;30.75;;;15.13;;
7487;SDS011;3785;52.260;4.728;2024-03-07T02:55:19;29.90;;;13.90;;
7487;SDS011;3785;52.260;4.728;2024-03-07T02:58:40;32.78;;;15.38;;
7487;SDS011;3785;52.260;4.728;2024-03-07T03:02:01;31.38;;;14.80;;
7487;SDS011;3785;52.260;4.728;2024-03-07T03:05:22;34.80;;;16.10;;
7487;SDS011;3785;52.260;4.728;2024-03-07T03:08:42;29.13;;;14.77;;
7487;SDS011;3785;52.260;4.728;2024-03-07T03:12:03;32.70;;;16.05;;
7487;SDS011;3785;52.260;4.728;2024-03-07T03:15:24;30.40;;;15.68;;
7487;SDS011;3785;52.260;4.728;2024-03-07T03:18:45;31.63;;;15.52;;
7487;SDS011;3785;52.260;4.728;2024-03-07T03:22:05;32.45;;;14.57;;
7487;SDS011;3785;52.260;4.728;2024-03-07T03:25:28;32.28;;;15.95;;
7487;SDS011;3785;52.260;4.728;2024-03-07T03:28:49;29.15;;;14.68;;
7487;SDS011;3785;52.260;4.728;2024-03-07T03:32:10;30.80;;;15.07;;
7487;SDS011;3785;52.260;4.728;2024-03-07T03:35:31;29.45;;;15.27;;
7487;SDS011;3785;52.260;4.728;2024-03-07T03:38:53;28.88;;;14.45;;
7487;SDS011;3785;52.260;4.728;2024-03-07T03:42:14;33.22;;;15.95;;
7487;SDS011;3785;52.260;4.728;2024-03-07T03:45:35;31.17;;;14.95;;
7487;SDS011;3785;52.260;4.728;2024-03-07T03:48:55;29.92;;;14.73;;
7487;SDS011;3785;52.260;4.728;2024-03-07T03:52:16;29.13;;;15.60;;
7487;SDS011;3785;52.260;4.728;2024-03-07T03:55:36;31.40;;;15.15;;
7487;SDS011;3785;52.260;4.728;2024-03-07T03:58:57;31.48;;;16.13;;
7487;SDS011;3785;52.260;4.728;2024-03-07T04:02:18;36.53;;;16.92;;
7487;SDS011;3785;52.260;4.728;2024-03-07T04:05:38;33.28;;;15.98;;
7487;SDS011;3785;52.260;4.728;2024-03-07T04:09:01;31.15;;;16.17;;
7487;SDS011;3785;52.260;4.728;2024-03-07T04:12:21;30.70;;;15.57;;
7487;SDS011;3785;52.260;4.728;2024-03-07T04:15:42;31.13;;;16.08;;
7487;SDS011;3785;52.260;4.728;2024-03-07T04:19:02;27.50;;;15.57;;
7487;SDS011;3785;52.260;4.728;2024-03-07T04:22:23;30.83;;;15.82;;
7487;SDS011;3785;52.260;4.728;2024-03-07T04:25:44;34.63;;;16.13;;
7487;SDS011;3785;52.260;4.728;2024-03-07T04:29:05;30.83;;;15.10;;
7487;SDS011;3785;52.260;4.728;2024-03-07T04:32:26;33.45;;;16.23;;
7487;SDS011;3785;52.260;4.728;2024-03-07T04:35:47;31.08;;;15.45;;
7487;SDS011;3785;52.260;4.728;2024-03-07T04:39:08;28.23;;;15.02;;
7487;SDS011;3785;52.260;4.728;2024-03-07T04:42:34;29.08;;;14.68;;
7487;SDS011;3785;52.260;4.728;2024-03-07T04:45:55;30.15;;;15.63;;
7487;SDS011;3785;52.260;4.728;2024-03-07T04:49:16;33.90;;;15.35;;
7487;SDS011;3785;52.260;4.728;2024-03-07T04:52:37;31.05;;;15.70;;
7487;SDS011;3785;52.260;4.728;2024-03-07T04:55:59;32.58;;;15.52;;
7487;SDS011;3785;52.260;4.728;2024-03-07T04:59:20;37.35;;;15.75;;
7487;SDS011;3785;52.260;4.728;2024-03-07T05:02:41;30.35;;;14.77;;
7487;SDS011;3785;52.260;4.728;2024-03-07T05:06:02;36.80;;;16.52;;
7487;SDS011;3785;52.260;4.728;2024-03-07T05:09:22;30.45;;;14.63;;
7487;SDS011;3785;52.260;4.728;2024-03-07T05:12:45;30.83;;;15.27;;
7487;SDS011;3785;52.260;4.728;2024-03-07T05:16:05;26.02;;;14.88;;
7487;SDS011;3785;52.260;4.728;2024-03-07T05:19:26;28.38;;;14.70;;
7487;SDS011;3785;52.260;4.728;2024-03-07T05:22:48;31.15;;;15.35;;
7487;SDS011;3785;52.260;4.728;2024-03-07T05:26:10;33.72;;;14.48;;
7487;SDS011;3785;52.260;4.728;2024-03-07T05:29:30;29.73;;;15.32;;
7487;SDS011;3785;52.260;4.728;2024-03-07T05:32:51;30.42;;;14.68;;
7487;SDS011;3785;52.260;4.728;2024-03-07T05:36:12;31.73;;;14.50;;
7487;SDS011;3785;52.260;4.728;2024-03-07T05:39:36;27.42;;;14.15;;
7487;SDS011;3785;52.260;4.728;2024-03-07T05:42:56;29.25;;;15.50;;
7487;SDS011;3785;52.260;4.728;2024-03-07T05:46:17;32.72;;;14.60;;
7487;SDS011;3785;52.260;4.728;2024-03-07T05:49:37;30.98;;;14.73;;
7487;SDS011;3785;52.260;4.728;2024-03-07T05:52:58;30.05;;;14.52;;
7487;SDS011;3785;52.260;4.728;2024-03-07T05:56:19;31.45;;;15.38;;
7487;SDS011;3785;52.260;4.728;2024-03-07T05:59:39;33.88;;;15.98;;
7487;SDS011;3785;52.260;4.728;2024-03-07T06:03:00;33.70;;;15.45;;
7487;SDS011;3785;52.260;4.728;2024-03-07T06:06:21;33.53;;;15.30;;
7487;SDS011;3785;52.260;4.728;2024-03-07T06:09:42;28.42;;;14.02;;
7487;SDS011;3785;52.260;4.728;2024-03-07T06:13:03;35.17;;;16.23;;
7487;SDS011;3785;52.260;4.728;2024-03-07T06:16:24;31.17;;;15.23;;
7487;SDS011;3785;52.260;4.728;2024-03-07T06:19:44;34.40;;;16.63;;
7487;SDS011;3785;52.260;4.728;2024-03-07T06:23:05;28.52;;;15.07;;
7487;SDS011;3785;52.260;4.728;2024-03-07T06:26:29;31.85;;;14.23;;
7487;SDS011;3785;52.260;4.728;2024-03-07T06:29:57;29.92;;;14.63;;
7487;SDS011;3785;52.260;4.728;2024-03-07T06:33:18;30.83;;;16.35;;
7487;SDS011;3785;52.260;4.728;2024-03-07T06:36:39;37.08;;;17.13;;
7487;SDS011;3785;52.260;4.728;2024-03-07T06:40:00;30.75;;;16.45;;
7487;SDS011;3785;52.260;4.728;2024-03-07T06:43:25;35.35;;;18.08;;
7487;SDS011;3785;52.260;4.728;2024-03-07T06:46:45;33.35;;;16.10;;
7487;SDS011;3785;52.260;4.728;2024-03-07T06:50:06;31.90;;;17.20;;
7487;SDS011;3785;52.260;4.728;2024-03-07T06:53:29;34.00;;;15.43;;
7487;SDS011;3785;52.260;4.728;2024-03-07T06:56:50;34.17;;;15.88;;
7487;SDS011;3785;52.260;4.728;2024-03-07T07:00:14;33.25;;;16.02;;
7487;SDS011;3785;52.260;4.728;2024-03-07T07:03:41;33.70;;;17.77;;
7487;SDS011;3785;52.260;4.728;2024-03-07T07:07:03;32.45;;;16.90;;
7487;SDS011;3785;52.260;4.728;2024-03-07T07:10:24;34.30;;;17.40;;
7487;SDS011;3785;52.260;4.728;2024-03-07T07:13:44;35.30;;;16.90;;
7487;SDS011;3785;52.260;4.728;2024-03-07T07:17:06;31.17;;;16.17;;
7487;SDS011;3785;52.260;4.728;2024-03-07T07:20:27;33.28;;;16.83;;
7487;SDS011;3785;52.260;4.728;2024-03-07T07:23:48;31.63;;;15.85;;
7487;SDS011;3785;52.260;4.728;2024-03-07T07:27:08;31.50;;;16.30;;
7487;SDS011;3785;52.260;4.728;2024-03-07T07:30:29;28.58;;;16.48;;
7487;SDS011;3785;52.260;4.728;2024-03-07T07:33:50;32.30;;;16.58;;
7487;SDS011;3785;52.260;4.728;2024-03-07T07:37:10;31.63;;;16.40;;
7487;SDS011;3785;52.260;4.728;2024-03-07T07:40:31;28.63;;;15.60;;
7487;SDS011;3785;52.260;4.728;2024-03-07T07:43:53;31.05;;;15.20;;
7487;SDS011;3785;52.260;4.728;2024-03-07T07:47:13;34.40;;;17.05;;
7487;SDS011;3785;52.260;4.728;2024-03-07T07:50:35;27.70;;;14.68;;
7487;SDS011;3785;52.260;4.728;2024-03-07T07:53:56;23.42;;;11.82;;
7487;SDS011;3785;52.260;4.728;2024-03-07T07:57:16;24.17;;;13.05;;
7487;SDS011;3785;52.260;4.728;2024-03-07T08:00:37;33.35;;;15.13;;
7487;SDS011;3785;52.260;4.728;2024-03-07T08:03:58;28.45;;;15.57;;
7487;SDS011;3785;52.260;4.728;2024-03-07T08:07:19;27.25;;;14.75;;
7487;SDS011;3785;52.260;4.728;2024-03-07T08:10:39;31.92;;;15.95;;
7487;SDS011;3785;52.260;4.728;2024-03-07T08:14:05;27.92;;;15.90;;
7487;SDS011;3785;52.260;4.728;2024-03-07T08:17:26;21.60;;;11.73;;
7487;SDS011;3785;52.260;4.728;2024-03-07T08:20:47;31.38;;;15.88;;
7487;SDS011;3785;52.260;4.728;2024-03-07T08:24:09;24.23;;;12.75;;
7487;SDS011;3785;52.260;4.728;2024-03-07T08:27:32;29.40;;;14.82;;
7487;SDS011;3785;52.260;4.728;2024-03-07T08:30:53;29.00;;;14.38;;
7487;SDS011;3785;52.260;4.728;2024-03-07T08:34:14;28.08;;;14.63;;
7487;SDS011;3785;52.260;4.728;2024-03-07T08:37:35;26.42;;;14.20;;
7487;SDS011;3785;52.260;4.728;2024-03-07T08:40:56;27.60;;;14.05;;
7487;SDS011;3785;52.260;4.728;2024-03-07T08:44:17;24.85;;;13.05;;
7487;SDS011;3785;52.260;4.728;2024-03-07T08:47:37;29.67;;;13.50;;
7487;SDS011;3785;52.260;4.728;2024-03-07T08:50:58;23.92;;;12.30;;
7487;SDS011;3785;52.260;4.728;2024-03-07T08:54:19;27.15;;;13.35;;
7487;SDS011;3785;52.260;4.728;2024-03-07T08:57:40;21.85;;;12.43;;
7487;SDS011;3785;52.260;4.728;2024-03-07T09:01:01;22.58;;;12.93;;
7487;SDS011;3785;52.260;4.728;2024-03-07T09:04:22;18.30;;;10.93;;
7487;SDS011;3785;52.260;4.728;2024-03-07T09:07:43;13.25;;;7.32;;
7487;SDS011;3785;52.260;4.728;2024-03-07T09:11:06;20.88;;;12.30;;
7487;SDS011;3785;52.260;4.728;2024-03-07T09:14:27;21.30;;;12.02;;
7487;SDS011;3785;52.260;4.728;2024-03-07T09:17:48;22.20;;;11.55;;
7487;SDS011;3785;52.260;4.728;2024-03-07T09:21:09;19.17;;;10.93;;
7487;SDS011;3785;52.260;4.728;2024-03-07T09:24:30;22.15;;;10.50;;
7487;SDS011;3785;52.260;4.728;2024-03-07T09:27:51;19.45;;;10.57;;
7487;SDS011;3785;52.260;4.728;2024-03-07T09:31:14;19.63;;;9.90;;
7487;SDS011;3785;52.260;4.728;2024-03-07T09:34:35;18.88;;;10.73;;
7487;SDS011;3785;52.260;4.728;2024-03-07T09:37:56;15.82;;;9.50;;
7487;SDS011;3785;52.260;4.728;2024-03-07T09:41:17;16.60;;;9.63;;
7487;SDS011;3785;52.260;4.728;2024-03-07T09:44:38;13.93;;;8.77;;
7487;SDS011;3785;52.260;4.728;2024-03-07T09:48:01;19.20;;;10.57;;
7487;SDS011;3785;52.260;4.728;2024-03-07T09:51:22;16.80;;;10.57;;
7487;SDS011;3785;52.260;4.728;2024-03-07T09:54:44;15.05;;;9.02;;
7487;SDS011;3785;52.260;4.728;2024-03-07T09:58:04;15.32;;;9.30;;
7487;SDS011;3785;52.260;4.728;2024-03-07T10:01:27;9.48;;;6.68;;
7487;SDS011;3785;52.260;4.728;2024-03-07T10:04:48;12.48;;;8.13;;
7487;SDS011;3785;52.260;4.728;2024-03-07T10:08:09;15.25;;;9.40;;
7487;SDS011;3785;52.260;4.728;2024-03-07T10:11:30;15.60;;;9.38;;
7487;SDS011;3785;52.260;4.728;2024-03-07T10:14:53;14.18;;;8.75;;
7487;SDS011;3785;52.260;4.728;2024-03-07T10:18:17;12.18;;;7.35;;
7487;SDS011;3785;52.260;4.728;2024-03-07T10:21:41;13.20;;;9.20;;
7487;SDS011;3785;52.260;4.728;2024-03-07T10:25:02;13.65;;;8.88;;
7487;SDS011;3785;52.260;4.728;2024-03-07T10:28:25;14.65;;;8.40;;
7487;SDS011;3785;52.260;4.728;2024-03-07T10:31:47;12.45;;;7.30;;
7487;SDS011;3785;52.260;4.728;2024-03-07T10:35:07;13.52;;;8.48;;
7487;SDS011;3785;52.260;4.728;2024-03-07T10:38:28;14.50;;;8.60;;
7487;SDS011;3785;52.260;4.728;2024-03-07T10:41:49;12.65;;;8.07;;
7487;SDS011;3785;52.260;4.728;2024-03-07T10:45:10;11.52;;;7.30;;
7487;SDS011;3785;52.260;4.728;2024-03-07T10:48:31;10.48;;;6.20;;
7487;SDS011;3785;52.260;4.728;2024-03-07T10:52:13;10.07;;;6.97;;
7487;SDS011;3785;52.260;4.728;2024-03-07T10:55:49;9.15;;;5.82;;
7487;SDS011;3785;52.260;4.728;2024-03-07T10:59:19;11.88;;;7.63;;
7487;SDS011;3785;52.260;4.728;2024-03-07T11:02:43;13.77;;;7.50;;
7487;SDS011;3785;52.260;4.728;2024-03-07T11:06:06;13.07;;;7.60;;
7487;SDS011;3785;52.260;4.728;2024-03-07T11:09:31;12.20;;;6.90;;
7487;SDS011;3785;52.260;4.728;2024-03-07T11:12:53;10.82;;;6.72;;
7487;SDS011;3785;52.260;4.728;2024-03-07T11:16:14;12.13;;;6.65;;
7487;SDS011;3785;52.260;4.728;2024-03-07T11:19:35;12.32;;;7.55;;
7487;SDS011;3785;52.260;4.728;2024-03-07T11:22:56;11.68;;;6.68;;
7487;SDS011;3785;52.260;4.728;2024-03-07T11:26:17;12.52;;;7.00;;
7487;SDS011;3785;52.260;4.728;2024-03-07T11:33:03;9.80;;;6.47;;
7487;SDS011;3785;52.260;4.728;2024-03-07T11:36:42;9.65;;;6.25;;
7487;SDS011;3785;52.260;4.728;2024-03-07T11:40:06;13.77;;;6.80;;
7487;SDS011;3785;52.260;4.728;2024-03-07T11:43:28;12.82;;;7.28;;
7487;SDS011;3785;52.260;4.728;2024-03-07T11:46:49;10.68;;;6.13;;
7487;SDS011;3785;52.260;4.728;2024-03-07T11:50:10;15.20;;;8.38;;
7487;SDS011;3785;52.260;4.728;2024-03-07T11:53:34;14.00;;;6.95;;
7487;SDS011;3785;52.260;4.728;2024-03-07T11:56:57;13.65;;;8.27;;
7487;SDS011;3785;52.260;4.728;2024-03-07T12:00:18;13.10;;;7.15;;
7487;SDS011;3785;52.260;4.728;2024-03-07T12:03:39;13.43;;;7.20;;
7487;SDS011;3785;52.260;4.728;2024-03-07T12:07:00;12.50;;;7.25;;
7487;SDS011;3785;52.260;4.728;2024-03-07T12:10:20;11.15;;;7.45;;
7487;SDS011;3785;52.260;4.728;2024-03-07T12:13:44;12.20;;;6.90;;
7487;SDS011;3785;52.260;4.728;2024-03-07T12:17:05;12.57;;;7.13;;
7487;SDS011;3785;52.260;4.728;2024-03-07T12:20:26;11.40;;;7.00;;
7487;SDS011;3785;52.260;4.728;2024-03-07T12:23:53;13.07;;;7.50;;
7487;SDS011;3785;52.260;4.728;2024-03-07T12:27:15;15.60;;;7.95;;
7487;SDS011;3785;52.260;4.728;2024-03-07T12:30:38;9.88;;;6.28;;
7487;SDS011;3785;52.260;4.728;2024-03-07T12:34:11;12.75;;;7.43;;
7487;SDS011;3785;52.260;4.728;2024-03-07T12:37:35;11.77;;;6.50;;
7487;SDS011;3785;52.260;4.728;2024-03-07T12:41:05;12.52;;;6.93;;
7487;SDS011;3785;52.260;4.728;2024-03-07T12:44:42;13.13;;;7.47;;
7487;SDS011;3785;52.260;4.728;2024-03-07T12:48:06;10.48;;;6.38;;
7487;SDS011;3785;52.260;4.728;2024-03-07T12:51:27;11.25;;;6.80;;
7487;SDS011;3785;52.260;4.728;2024-03-07T12:54:47;11.43;;;6.47;;
7487;SDS011;3785;52.260;4.728;2024-03-07T12:58:10;10.07;;;6.57;;
7487;SDS011;3785;52.260;4.728;2024-03-07T13:01:33;11.43;;;6.80;;
7487;SDS011;3785;52.260;4.728;2024-03-07T13:04:53;12.77;;;7.47;;
7487;SDS011;3785;52.260;4.728;2024-03-07T13:08:15;11.25;;;6.72;;
7487;SDS011;3785;52.260;4.728;2024-03-07T13:11:39;13.15;;;6.70;;
7487;SDS011;3785;52.260;4.728;2024-03-07T13:15:06;11.27;;;6.63;;
7487;SDS011;3785;52.260;4.728;2024-03-07T13:18:30;10.45;;;6.38;;
7487;SDS011;3785;52.260;4.728;2024-03-07T13:21:54;10.15;;;6.10;;
7487;SDS011;3785;52.260;4.728;2024-03-07T13:25:19;12.95;;;6.70;;
7487;SDS011;3785;52.260;4.728;2024-03-07T13:28:43;9.90;;;6.30;;
7487;SDS011;3785;52.260;4.728;2024-03-07T13:32:04;10.27;;;6.68;;
7487;SDS011;3785;52.260;4.728;2024-03-07T13:35:25;12.02;;;6.00;;
7487;SDS011;3785;52.260;4.728;2024-03-07T13:38:46;9.80;;;5.47;;
7487;SDS011;3785;52.260;4.728;2024-03-07T13:42:06;9.18;;;5.50;;
7487;SDS011;3785;52.260;4.728;2024-03-07T13:45:32;11.48;;;6.60;;
7487;SDS011;3785;52.260;4.728;2024-03-07T13:49:01;9.98;;;6.15;;
7487;SDS011;3785;52.260;4.728;2024-03-07T13:52:32;12.40;;;5.28;;
7487;SDS011;3785;52.260;4.728;2024-03-07T14:11:17;10.20;;;5.65;;
7487;SDS011;3785;52.260;4.728;2024-03-07T14:22:54;9.20;;;6.05;;
7487;SDS011;3785;52.260;4.728;2024-03-07T14:26:47;9.60;;;5.57;;
7487;SDS011;3785;52.260;4.728;2024-03-07T14:34:09;10.05;;;6.25;;
7487;SDS011;3785;52.260;4.728;2024-03-07T14:37:43;10.00;;;6.05;;
7487;SDS011;3785;52.260;4.728;2024-03-07T14:41:10;11.32;;;6.68;;
7487;SDS011;3785;52.260;4.728;2024-03-07T14:44:32;16.27;;;7.55;;
7487;SDS011;3785;52.260;4.728;2024-03-07T14:47:54;11.68;;;7.10;;
7487;SDS011;3785;52.260;4.728;2024-03-07T14:51:14;8.70;;;5.38;;
7487;SDS011;3785;52.260;4.728;2024-03-07T14:54:39;12.27;;;7.43;;
7487;SDS011;3785;52.260;4.728;2024-03-07T14:58:01;12.00;;;7.28;;
7487;SDS011;3785;52.260;4.728;2024-03-07T15:01:21;12.35;;;6.95;;
7487;SDS011;3785;52.260;4.728;2024-03-07T15:04:46;11.70;;;6.70;;
7487;SDS011;3785;52.260;4.728;2024-03-07T15:08:07;12.15;;;6.55;;
7487;SDS011;3785;52.260;4.728;2024-03-07T15:11:37;11.30;;;7.10;;
7487;SDS011;3785;52.260;4.728;2024-03-07T15:14:58;10.77;;;6.43;;
7487;SDS011;3785;52.260;4.728;2024-03-07T15:18:18;12.45;;;6.72;;
7487;SDS011;3785;52.260;4.728;2024-03-07T15:21:39;11.85;;;6.82;;
7487;SDS011;3785;52.260;4.728;2024-03-07T15:24:59;10.15;;;6.05;;
7487;SDS011;3785;52.260;4.728;2024-03-07T15:28:22;10.38;;;6.80;;
7487;SDS011;3785;52.260;4.728;2024-03-07T15:31:44;9.95;;;6.50;;
7487;SDS011;3785;52.260;4.728;2024-03-07T15:35:04;10.45;;;6.13;;
7487;SDS011;3785;52.260;4.728;2024-03-07T15:38:26;9.25;;;5.97;;
7487;SDS011;3785;52.260;4.728;2024-03-07T15:41:47;12.73;;;6.97;;
7487;SDS011;3785;52.260;4.728;2024-03-07T15:45:08;9.32;;;6.15;;
7487;SDS011;3785;52.260;4.728;2024-03-07T15:48:36;8.20;;;5.60;;
7487;SDS011;3785;52.260;4.728;2024-03-07T15:51:57;8.82;;;5.57;;
7487;SDS011;3785;52.260;4.728;2024-03-07T15:55:17;10.25;;;5.82;;
7487;SDS011;3785;52.260;4.728;2024-03-07T15:58:38;8.95;;;5.50;;
7487;SDS011;3785;52.260;4.728;2024-03-07T16:01:59;8.90;;;5.97;;
7487;SDS011;3785;52.260;4.728;2024-03-07T16:05:26;8.27;;;6.05;;
7487;SDS011;3785;52.260;4.728;2024-03-07T16:08:51;7.03;;;4.80;;
7487;SDS011;3785;52.260;4.728;2024-03-07T16:12:11;8.32;;;5.57;;
7487;SDS011;3785;52.260;4.728;2024-03-07T16:15:33;8.40;;;5.28;;
7487;SDS011;3785;52.260;4.728;2024-03-07T16:18:54;8.15;;;4.72;;
7487;SDS011;3785;52.260;4.728;2024-03-07T16:22:14;9.05;;;5.32;;
7487;SDS011;3785;52.260;4.728;2024-03-07T16:25:36;7.90;;;4.88;;
7487;SDS011;3785;52.260;4.728;2024-03-07T16:28:57;7.30;;;5.00;;
7487;SDS011;3785;52.260;4.728;2024-03-07T16:32:18;7.72;;;4.88;;
7487;SDS011;3785;52.260;4.728;2024-03-07T16:35:39;9.43;;;5.45;;
7487;SDS011;3785;52.260;4.728;2024-03-07T16:38:59;8.02;;;5.03;;
7487;SDS011;3785;52.260;4.728;2024-03-07T16:42:27;6.85;;;4.93;;
7487;SDS011;3785;52.260;4.728;2024-03-07T16:45:48;8.73;;;5.25;;
7487;SDS011;3785;52.260;4.728;2024-03-07T16:49:10;13.82;;;5.63;;
7487;SDS011;3785;52.260;4.728;2024-03-07T16:52:35;9.35;;;5.00;;
7487;SDS011;3785;52.260;4.728;2024-03-07T16:55:56;6.95;;;3.92;;
7487;SDS011;3785;52.260;4.728;2024-03-07T16:59:17;8.80;;;5.60;;
7487;SDS011;3785;52.260;4.728;2024-03-07T17:02:38;8.45;;;4.65;;
7487;SDS011;3785;52.260;4.728;2024-03-07T17:05:58;9.25;;;5.50;;
7487;SDS011;3785;52.260;4.728;2024-03-07T17:09:20;8.98;;;5.22;;
7487;SDS011;3785;52.260;4.728;2024-03-07T17:16:06;9.68;;;5.45;;
7487;SDS011;3785;52.260;4.728;2024-03-07T17:19:26;9.02;;;5.63;;
7487;SDS011;3785;52.260;4.728;2024-03-07T17:22:47;9.10;;;5.72;;
7487;SDS011;3785;52.260;4.728;2024-03-07T17:26:07;11.63;;;6.32;;
7487;SDS011;3785;52.260;4.728;2024-03-07T17:29:28;9.82;;;5.53;;
7487;SDS011;3785;52.260;4.728;2024-03-07T17:32:49;11.18;;;5.72;;
7487;SDS011;3785;52.260;4.728;2024-03-07T17:36:11;9.82;;;5.63;;
7487;SDS011;3785;52.260;4.728;2024-03-07T17:39:32;12.35;;;5.95;;
7487;SDS011;3785;52.260;4.728;2024-03-07T17:42:53;10.27;;;6.20;;
7487;SDS011;3785;52.260;4.728;2024-03-07T17:46:15;9.73;;;5.57;;
7487;SDS011;3785;52.260;4.728;2024-03-07T17:49:38;12.82;;;5.72;;
7487;SDS011;3785;52.260;4.728;2024-03-07T17:53:03;11.82;;;6.22;;
7487;SDS011;3785;52.260;4.728;2024-03-07T17:56:28;12.20;;;6.00;;
7487;SDS011;3785;52.260;4.728;2024-03-07T17:59:49;12.45;;;6.60;;
7487;SDS011;3785;52.260;4.728;2024-03-07T18:03:09;13.43;;;7.18;;
7487;SDS011;3785;52.260;4.728;2024-03-07T18:06:30;10.05;;;5.78;;
7487;SDS011;3785;52.260;4.728;2024-03-07T18:09:51;11.82;;;6.60;;
7487;SDS011;3785;52.260;4.728;2024-03-07T18:13:14;13.30;;;7.30;;
7487;SDS011;3785;52.260;4.728;2024-03-07T18:16:34;14.60;;;7.18;;
7487;SDS011;3785;52.260;4.728;2024-03-07T18:19:57;12.05;;;6.18;;
7487;SDS011;3785;52.260;4.728;2024-03-07T18:23:19;11.45;;;6.47;;
7487;SDS011;3785;52.260;4.728;2024-03-07T18:26:41;10.80;;;6.20;;
7487;SDS011;3785;52.260;4.728;2024-03-07T18:30:01;11.23;;;5.57;;
7487;SDS011;3785;52.260;4.728;2024-03-07T18:33:31;10.73;;;6.28;;
7487;SDS011;3785;52.260;4.728;2024-03-07T18:36:51;13.70;;;6.80;;
7487;SDS011;3785;52.260;4.728;2024-03-07T18:40:12;9.70;;;5.78;;
7487;SDS011;3785;52.260;4.728;2024-03-07T18:43:36;10.25;;;5.88;;
7487;SDS011;3785;52.260;4.728;2024-03-07T18:46:59;14.27;;;6.85;;
7487;SDS011;3785;52.260;4.728;2024-03-07T18:50:24;12.00;;;5.45;;
7487;SDS011;3785;52.260;4.728;2024-03-07T18:53:45;12.07;;;6.78;;
7487;SDS011;3785;52.260;4.728;2024-03-07T18:57:09;11.43;;;6.00;;
7487;SDS011;3785;52.260;4.728;2024-03-07T19:00:31;12.27;;;6.20;;
7487;SDS011;3785;52.260;4.728;2024-03-07T19:03:51;10.68;;;5.50;;
7487;SDS011;3785;52.260;4.728;2024-03-07T19:07:12;12.32;;;5.65;;
7487;SDS011;3785;52.260;4.728;2024-03-07T19:10:33;11.68;;;5.85;;
7487;SDS011;3785;52.260;4.728;2024-03-07T19:13:53;14.55;;;6.93;;
7487;SDS011;3785;52.260;4.728;2024-03-07T19:17:14;15.52;;;7.15;;
7487;SDS011;3785;52.260;4.728;2024-03-07T19:20:37;10.10;;;5.07;;
7487;SDS011;3785;52.260;4.728;2024-03-07T19:24:01;14.98;;;7.15;;
7487;SDS011;3785;52.260;4.728;2024-03-07T19:27:22;10.73;;;5.75;;
7487;SDS011;3785;52.260;4.728;2024-03-07T19:34:04;15.27;;;6.72;;
7487;SDS011;3785;52.260;4.728;2024-03-07T19:37:25;14.73;;;6.93;;
7487;SDS011;3785;52.260;4.728;2024-03-07T19:40:46;9.55;;;5.28;;
7487;SDS011;3785;52.260;4.728;2024-03-07T19:44:09;16.85;;;7.80;;
7487;SDS011;3785;52.260;4.728;2024-03-07T19:47:30;11.38;;;5.82;;
7487;SDS011;3785;52.260;4.728;2024-03-07T19:50:51;12.40;;;7.18;;
7487;SDS011;3785;52.260;4.728;2024-03-07T19:54:12;11.65;;;6.40;;
7487;SDS011;3785;52.260;4.728;2024-03-07T19:57:36;13.98;;;7.45;;
7487;SDS011;3785;52.260;4.728;2024-03-07T20:00:56;15.32;;;7.50;;
7487;SDS011;3785;52.260;4.728;2024-03-07T20:04:19;14.63;;;7.38;;
7487;SDS011;3785;52.260;4.728;2024-03-07T20:07:39;15.38;;;7.00;;
7487;SDS011;3785;52.260;4.728;2024-03-07T20:11:00;11.82;;;6.70;;
7487;SDS011;3785;52.260;4.728;2024-03-07T20:14:21;15.85;;;7.45;;
7487;SDS011;3785;52.260;4.728;2024-03-07T20:17:42;17.42;;;7.53;;
7487;SDS011;3785;52.260;4.728;2024-03-07T20:21:03;13.05;;;7.18;;
7487;SDS011;3785;52.260;4.728;2024-03-07T20:24:24;9.88;;;6.00;;
7487;SDS011;3785;52.260;4.728;2024-03-07T20:27:46;9.15;;;5.50;;
7487;SDS011;3785;52.260;4.728;2024-03-07T20:31:08;19.13;;;8.32;;
7487;SDS011;3785;52.260;4.728;2024-03-07T20:34:29;15.52;;;7.82;;
7487;SDS011;3785;52.260;4.728;2024-03-07T20:37:49;14.80;;;7.63;;
7487;SDS011;3785;52.260;4.728;2024-03-07T20:41:10;13.93;;;7.13;;
7487;SDS011;3785;52.260;4.728;2024-03-07T20:44:31;14.30;;;7.60;;
7487;SDS011;3785;52.260;4.728;2024-03-07T20:47:51;16.20;;;8.23;;
7487;SDS011;3785;52.260;4.728;2024-03-07T20:51:12;14.38;;;7.63;;
7487;SDS011;3785;52.260;4.728;2024-03-07T20:54:34;17.02;;;7.63;;
7487;SDS011;3785;52.260;4.728;2024-03-07T20:57:55;15.20;;;7.82;;
7487;SDS011;3785;52.260;4.728;2024-03-07T21:01:21;13.35;;;7.32;;
7487;SDS011;3785;52.260;4.728;2024-03-07T21:04:44;16.33;;;7.68;;
7487;SDS011;3785;52.260;4.728;2024-03-07T21:08:05;12.45;;;7.18;;